Gurnee, Illinois
Current Conditions -  °F | °C
As of 11:55 AM on Monday 26 Jan 2015 (Local Time) from KUGN Reporting Station
Overcast Overcast  
Wind Chill: 19°   Ceiling: 7500
Heat Index: 26°   Visibility: 10mi
Dew Point: 16°   Wind: 6mph
Humidity: 66%   Direction: NA
Pressure: 29.89"   Gusts: NA
Location:  42.36°N, 87.91°W
Report Text: KUGN 261755Z VRB05KT 10SM OVC075 M03/M09 A2989 RMK AO2 SLP137 T10331089 11033 21106 58019
Loading
Personal Weather Stations






























Interactive Weather Map New forecast layout! Learn more

10-Day Weather Forecast

Advertisements
Track Severe Weather on mobile